Terminal Aerodrome Forecast
Issued by NWS Wilmington, OH

Home | Current Version | Previous Version | Text Only | Print | Product List | Glossary On
Versions: 1 2 3 4 5 6 7 8 9 10 11 12 13 14 15 16 17 18 19 20 21 22 23 24 25 26 27
000
FTUS41 KILN 301400 AAA
TAFCVG
TAF AMD
KCVG 301459Z 3015/3118 VRB03KT P6SM SCT040
     FM302000 VRB03KT P6SM SCT120 BKN200
     FM310000 00000KT P6SM BKN080
     FM310900 26004KT P6SM VCSH BKN050 OVC080
     FM311600 29010KT 5SM -SHRA BKN025 OVC040=

USA.gov is the U.S. government's official web portal to all federal, state and local government web resources and services.